RYR23VD EIDW-EGGP
Flight info
| Callsign | RYR23VD |
|---|---|
| Flight time | 0h 31m |
| Altitude | 17000 |
| Route | BOFUM3J BOFUM |
| Aircraft | B738/M-SDE2E3FGHIRWXY/LB1 |
Departure
| Time | 2026-05-07 18:54 |
|---|---|
| Airport | Dublin Airport (EIDW) |
Arrival
| Time | 2026-05-07 19:25 |
|---|---|
| Airport | Liverpool John Lennon Airport (EGGP) |
| Time | Latitude | Longitude | Altitude | Speed | Heading |
|---|---|---|---|---|---|
| 2026-05-07 18:54 | 53.52658 | -6.27364 | 6579 ft | 278 kts | 95° |
| 2026-05-07 18:54 | 53.52563 | -6.24081 | 7301 ft | 283 kts | 95° |
| 2026-05-07 18:54 | 53.52477 | -6.20758 | 8142 ft | 285 kts | 94° |
| 2026-05-07 18:54 | 53.52406 | -6.17405 | 8964 ft | 289 kts | 94° |
| 2026-05-07 18:55 | 53.52344 | -6.14014 | 9777 ft | 292 kts | 93° |
| 2026-05-07 18:55 | 53.52283 | -6.10561 | 10363 ft | 303 kts | 93° |
| 2026-05-07 18:55 | 53.52275 | -6.06869 | 10545 ft | 328 kts | 91° |
| 2026-05-07 18:55 | 53.52315 | -6.02958 | 11025 ft | 340 kts | 90° |
| 2026-05-07 18:56 | 53.52367 | -5.98942 | 11688 ft | 346 kts | 90° |
| 2026-05-07 18:56 | 53.52418 | -5.94872 | 12471 ft | 350 kts | 90° |
| 2026-05-07 18:56 | 53.52464 | -5.90782 | 13359 ft | 350 kts | 91° |
| 2026-05-07 18:56 | 53.52505 | -5.86693 | 14256 ft | 350 kts | 91° |
| 2026-05-07 18:57 | 53.52541 | -5.82615 | 15143 ft | 349 kts | 91° |
| 2026-05-07 18:57 | 53.52574 | -5.78494 | 15657 ft | 354 kts | 91° |
| 2026-05-07 18:57 | 53.52604 | -5.74372 | 16141 ft | 352 kts | 91° |
| 2026-05-07 18:57 | 53.52633 | -5.70272 | 16376 ft | 349 kts | 91° |
| 2026-05-07 18:58 | 53.52660 | -5.66206 | 16643 ft | 348 kts | 91° |
| 2026-05-07 18:58 | 53.52685 | -5.62144 | 16908 ft | 347 kts | 91° |
| 2026-05-07 18:58 | 53.52708 | -5.58071 | 16951 ft | 350 kts | 92° |
| 2026-05-07 18:58 | 53.52730 | -5.53995 | 16961 ft | 348 kts | 91° |
| 2026-05-07 18:59 | 53.52751 | -5.49929 | 16965 ft | 347 kts | 92° |
| 2026-05-07 18:59 | 53.52770 | -5.45866 | 16968 ft | 347 kts | 92° |
| 2026-05-07 18:59 | 53.52788 | -5.41809 | 16967 ft | 347 kts | 92° |
| 2026-05-07 18:59 | 53.52805 | -5.37792 | 16969 ft | 347 kts | 92° |
| 2026-05-07 19:00 | 53.52820 | -5.33722 | 16969 ft | 347 kts | 92° |
| 2026-05-07 19:00 | 53.52834 | -5.29662 | 16969 ft | 347 kts | 92° |
| 2026-05-07 19:00 | 53.52848 | -5.25606 | 16966 ft | 347 kts | 92° |
| 2026-05-07 19:00 | 53.52860 | -5.21543 | 16974 ft | 347 kts | 92° |
| 2026-05-07 19:01 | 53.52869 | -5.17485 | 16969 ft | 347 kts | 92° |
| 2026-05-07 19:01 | 53.52841 | -5.13426 | 16972 ft | 346 kts | 95° |
| 2026-05-07 19:01 | 53.52723 | -5.09425 | 16971 ft | 346 kts | 96° |
| 2026-05-07 19:01 | 53.52576 | -5.05376 | 16974 ft | 346 kts | 96° |
| 2026-05-07 19:02 | 53.52431 | -5.01345 | 16969 ft | 346 kts | 96° |
| 2026-05-07 19:02 | 53.52292 | -4.97308 | 16977 ft | 346 kts | 96° |
| 2026-05-07 19:02 | 53.52159 | -4.93262 | 16980 ft | 346 kts | 95° |
| 2026-05-07 19:02 | 53.52027 | -4.89228 | 16981 ft | 346 kts | 96° |
| 2026-05-07 19:03 | 53.51895 | -4.85220 | 16983 ft | 346 kts | 95° |
| 2026-05-07 19:03 | 53.51762 | -4.81174 | 16977 ft | 346 kts | 95° |
| 2026-05-07 19:03 | 53.51626 | -4.77118 | 16981 ft | 346 kts | 96° |
| 2026-05-07 19:03 | 53.51491 | -4.73114 | 16984 ft | 346 kts | 96° |
| 2026-05-07 19:04 | 53.51354 | -4.69072 | 16984 ft | 346 kts | 96° |
| 2026-05-07 19:04 | 53.51216 | -4.65046 | 16986 ft | 345 kts | 96° |
| 2026-05-07 19:04 | 53.51077 | -4.61019 | 16986 ft | 345 kts | 96° |
| 2026-05-07 19:04 | 53.50936 | -4.56982 | 16985 ft | 345 kts | 96° |
| 2026-05-07 19:05 | 53.50795 | -4.52962 | 16992 ft | 345 kts | 96° |
| 2026-05-07 19:05 | 53.50650 | -4.48914 | 16735 ft | 346 kts | 96° |
| 2026-05-07 19:05 | 53.50508 | -4.44945 | 16468 ft | 344 kts | 96° |
| 2026-05-07 19:05 | 53.50363 | -4.40932 | 16127 ft | 341 kts | 96° |
| 2026-05-07 19:06 | 53.50218 | -4.36959 | 15770 ft | 339 kts | 96° |
| 2026-05-07 19:06 | 53.49928 | -4.29133 | 15066 ft | 335 kts | 96° |
| 2026-05-07 19:06 | 53.49780 | -4.25190 | 14710 ft | 333 kts | 96° |
| 2026-05-07 19:07 | 53.49635 | -4.21377 | 14374 ft | 331 kts | 96° |
| 2026-05-07 19:07 | 53.49488 | -4.17529 | 14025 ft | 329 kts | 96° |
| 2026-05-07 19:07 | 53.49340 | -4.13690 | 13660 ft | 328 kts | 96° |
| 2026-05-07 19:07 | 53.49193 | -4.09879 | 13274 ft | 326 kts | 96° |
| 2026-05-07 19:08 | 53.49045 | -4.06081 | 12920 ft | 324 kts | 96° |
| 2026-05-07 19:08 | 53.48897 | -4.02321 | 12563 ft | 322 kts | 96° |
| 2026-05-07 19:08 | 53.48747 | -3.98576 | 12210 ft | 319 kts | 96° |
| 2026-05-07 19:08 | 53.48477 | -3.94911 | 12009 ft | 312 kts | 107° |
| 2026-05-07 19:09 | 53.47811 | -3.91481 | 12003 ft | 307 kts | 112° |
| 2026-05-07 19:09 | 53.47090 | -3.88151 | 11966 ft | 300 kts | 112° |
| 2026-05-07 19:09 | 53.46386 | -3.84909 | 11679 ft | 300 kts | 112° |
| 2026-05-07 19:09 | 53.45671 | -3.81576 | 11300 ft | 306 kts | 112° |
| 2026-05-07 19:10 | 53.44953 | -3.78180 | 10936 ft | 310 kts | 112° |
| 2026-05-07 19:10 | 53.44235 | -3.74752 | 10564 ft | 310 kts | 112° |
| 2026-05-07 19:10 | 53.43542 | -3.71415 | 10151 ft | 303 kts | 112° |
| 2026-05-07 19:10 | 53.42860 | -3.68132 | 9875 ft | 292 kts | 112° |
| 2026-05-07 19:11 | 53.42211 | -3.65013 | 9576 ft | 282 kts | 112° |
| 2026-05-07 19:11 | 53.41573 | -3.61895 | 9250 ft | 281 kts | 109° |
| 2026-05-07 19:11 | 53.41436 | -3.58621 | 8894 ft | 285 kts | 86° |
| 2026-05-07 19:11 | 53.41672 | -3.55324 | 8606 ft | 283 kts | 85° |
| 2026-05-07 19:12 | 53.41915 | -3.52088 | 8305 ft | 282 kts | 85° |
| 2026-05-07 19:12 | 53.42155 | -3.48829 | 8025 ft | 280 kts | 86° |
| 2026-05-07 19:12 | 53.42388 | -3.45590 | 7741 ft | 278 kts | 86° |
| 2026-05-07 19:12 | 53.42614 | -3.42374 | 7492 ft | 276 kts | 86° |
| 2026-05-07 19:13 | 53.42833 | -3.39228 | 7379 ft | 268 kts | 86° |
| 2026-05-07 19:13 | 53.43043 | -3.36164 | 7251 ft | 260 kts | 86° |
| 2026-05-07 19:13 | 53.43243 | -3.33221 | 7144 ft | 253 kts | 86° |
| 2026-05-07 19:13 | 53.43440 | -3.30322 | 7038 ft | 245 kts | 86° |
| 2026-05-07 19:14 | 53.43590 | -3.27515 | 6890 ft | 239 kts | 92° |
| 2026-05-07 19:14 | 53.43669 | -3.24736 | 6725 ft | 237 kts | 90° |
| 2026-05-07 19:14 | 53.43776 | -3.21962 | 6557 ft | 239 kts | 90° |
| 2026-05-07 19:14 | 53.43885 | -3.19201 | 6377 ft | 240 kts | 90° |
| 2026-05-07 19:15 | 53.43997 | -3.16407 | 6184 ft | 239 kts | 89° |
| 2026-05-07 19:15 | 53.44108 | -3.13644 | 6004 ft | 236 kts | 90° |
| 2026-05-07 19:15 | 53.44217 | -3.10899 | 5814 ft | 235 kts | 89° |
| 2026-05-07 19:15 | 53.44325 | -3.08168 | 5632 ft | 233 kts | 90° |
| 2026-05-07 19:16 | 53.44430 | -3.05466 | 5456 ft | 231 kts | 89° |
| 2026-05-07 19:16 | 53.44532 | -3.02765 | 5293 ft | 232 kts | 89° |
| 2026-05-07 19:16 | 53.44632 | -3.00042 | 5124 ft | 234 kts | 89° |
| 2026-05-07 19:16 | 53.44731 | -2.97313 | 4948 ft | 234 kts | 90° |
| 2026-05-07 19:17 | 53.44827 | -2.94602 | 4766 ft | 233 kts | 90° |
| 2026-05-07 19:17 | 53.44921 | -2.91896 | 4592 ft | 232 kts | 90° |
| 2026-05-07 19:17 | 53.45014 | -2.89207 | 4398 ft | 231 kts | 90° |
| 2026-05-07 19:17 | 53.45104 | -2.86561 | 4226 ft | 228 kts | 90° |
| 2026-05-07 19:18 | 53.45194 | -2.83906 | 4047 ft | 227 kts | 90° |
| 2026-05-07 19:18 | 53.45282 | -2.81264 | 3858 ft | 226 kts | 90° |
| 2026-05-07 19:18 | 53.45366 | -2.78626 | 3631 ft | 227 kts | 90° |
| 2026-05-07 19:18 | 53.45447 | -2.76001 | 3377 ft | 227 kts | 90° |
| 2026-05-07 19:19 | 53.45335 | -2.73395 | 3105 ft | 224 kts | 112° |
| 2026-05-07 19:19 | 53.44716 | -2.71029 | 2878 ft | 220 kts | 119° |
| 2026-05-07 19:19 | 53.44046 | -2.68763 | 2713 ft | 212 kts | 120° |
| 2026-05-07 19:19 | 53.43409 | -2.66612 | 2587 ft | 199 kts | 120° |
| 2026-05-07 19:20 | 53.42809 | -2.64586 | 2446 ft | 188 kts | 121° |
| 2026-05-07 19:20 | 53.41956 | -2.63091 | 2267 ft | 172 kts | 159° |
| 2026-05-07 19:20 | 53.40822 | -2.62778 | 2162 ft | 166 kts | 179° |
| 2026-05-07 19:20 | 53.39660 | -2.62730 | 2047 ft | 167 kts | 179° |
| 2026-05-07 19:21 | 53.38508 | -2.62696 | 2006 ft | 163 kts | 180° |
| 2026-05-07 19:21 | 53.37395 | -2.62664 | 1998 ft | 162 kts | 180° |
| 2026-05-07 19:21 | 53.36263 | -2.62639 | 2010 ft | 163 kts | 180° |
| 2026-05-07 19:21 | 53.35165 | -2.63024 | 1969 ft | 164 kts | 214° |
| 2026-05-07 19:22 | 53.34468 | -2.64523 | 2017 ft | 168 kts | 243° |
| 2026-05-07 19:22 | 53.34220 | -2.66464 | 2012 ft | 173 kts | 261° |
| 2026-05-07 19:22 | 53.34128 | -2.68488 | 1870 ft | 173 kts | 262° |
| 2026-05-07 19:22 | 53.34043 | -2.70413 | 1670 ft | 158 kts | 262° |
| 2026-05-07 19:23 | 53.33961 | -2.72159 | 1483 ft | 150 kts | 262° |
| 2026-05-07 19:23 | 53.33877 | -2.73908 | 1253 ft | 150 kts | 263° |
| 2026-05-07 19:23 | 53.33797 | -2.75636 | 1046 ft | 148 kts | 262° |
| 2026-05-07 19:23 | 53.33717 | -2.77344 | 832 ft | 146 kts | 263° |
| 2026-05-07 19:24 | 53.33664 | -2.78461 | 685 ft | 145 kts | 263° |
| 2026-05-07 19:24 | 53.33560 | -2.80715 | 446 ft | 146 kts | 263° |
| 2026-05-07 19:24 | 53.33483 | -2.82398 | 237 ft | 144 kts | 264° |
| 2026-05-07 19:24 | 53.33431 | -2.83501 | 109 ft | 143 kts | 264° |
| 2026-05-07 19:25 | 53.33361 | -2.84989 | 84 ft | 104 kts | 265° |
| 2026-05-07 19:25 | 53.33315 | -2.85988 | 84 ft | 40 kts | 265° |
| 2026-05-07 19:25 | 53.33303 | -2.86308 | 82 ft | 15 kts | 276° |
| 2026-05-07 19:25 | 53.33371 | -2.86421 | 86 ft | 14 kts | 346° |
| 2026-05-07 19:26 | 53.33405 | -2.86427 | 84 ft | 0 kts | 355° |
| 2026-05-07 19:26 | 53.33440 | -2.86421 | 85 ft | 8 kts | 23° |
| 2026-05-07 19:26 | 53.33468 | -2.86324 | 88 ft | 11 kts | 84° |
| 2026-05-07 19:26 | 53.33476 | -2.86163 | 84 ft | 16 kts | 86° |
| 2026-05-07 19:27 | 53.33486 | -2.85973 | 88 ft | 13 kts | 69° |
| 2026-05-07 19:27 | 53.33566 | -2.85939 | 85 ft | 13 kts | 10° |
| 2026-05-07 19:27 | 53.33598 | -2.85818 | 89 ft | 12 kts | 86° |
| 2026-05-07 19:27 | 53.33603 | -2.85698 | 84 ft | 10 kts | 85° |
| 2026-05-07 19:28 | 53.33624 | -2.85651 | 86 ft | 5 kts | 8° |
| 2026-05-07 19:28 | 53.33649 | -2.85653 | 84 ft | 2 kts | 356° |
| 2026-05-07 19:28 | 53.33655 | -2.85654 | 86 ft | 0 kts | 356° |